createdAt,value
2018-06-19T00:00:03.023Z,18.20
2018-06-19T00:02:31.519Z,18.30
2018-06-19T00:05:00.007Z,18.30
2018-06-19T00:07:28.567Z,18.30
2018-06-19T00:09:57.047Z,18.30
2018-06-19T00:12:25.539Z,18.30
2018-06-19T00:14:53.988Z,18.30
2018-06-19T00:22:19.840Z,18.50
2018-06-19T00:24:48.320Z,18.50
2018-06-19T00:27:16.803Z,18.50
2018-06-19T00:32:13.461Z,18.50
2018-06-19T00:37:10.052Z,18.50
2018-06-19T00:39:38.506Z,18.50
2018-06-19T00:42:06.983Z,18.60
2018-06-19T00:44:35.447Z,18.60
2018-06-19T00:47:03.919Z,18.60
2018-06-19T00:49:32.401Z,18.60
2018-06-19T00:52:00.869Z,18.60
2018-06-19T00:54:29.331Z,18.60
2018-06-19T00:56:59.091Z,18.60
2018-06-19T00:59:27.697Z,18.70
2018-06-19T01:01:57.667Z,18.70
2018-06-19T01:04:26.160Z,18.60
2018-06-19T01:06:54.643Z,18.60
2018-06-19T01:09:23.111Z,18.60
2018-06-19T01:11:51.599Z,18.50
2018-06-19T01:14:20.056Z,18.60
2018-06-19T01:16:48.543Z,18.50
2018-06-19T01:19:16.991Z,18.50
2018-06-19T01:21:45.444Z,18.50
2018-06-19T01:24:13.911Z,18.50
2018-06-19T01:26:42.364Z,18.40
2018-06-19T01:29:10.843Z,18.40
2018-06-19T01:31:39.295Z,18.40
2018-06-19T01:34:07.792Z,18.40
2018-06-19T01:36:36.243Z,18.40
2018-06-19T01:39:07.855Z,18.30
2018-06-19T01:41:36.316Z,18.30
2018-06-19T01:44:04.775Z,18.20
2018-06-19T01:46:33.252Z,18.20
2018-06-19T01:49:01.719Z,18.20
2018-06-19T01:51:30.188Z,18.10
2018-06-19T01:53:58.644Z,18.10
2018-06-19T01:56:27.148Z,18.10
2018-06-19T01:58:55.603Z,18.10
2018-06-19T02:01:24.080Z,18.10
2018-06-19T02:03:52.611Z,18.10
2018-06-19T02:06:21.100Z,18.10
2018-06-19T02:08:49.547Z,18.10
2018-06-19T02:13:46.155Z,18.10
2018-06-19T02:16:14.627Z,18.10
2018-06-19T02:18:43.116Z,18.10
2018-06-19T02:21:11.560Z,18.00
2018-06-19T02:23:40.009Z,18.00
2018-06-19T02:26:08.485Z,18.00
2018-06-19T02:28:36.949Z,17.90
2018-06-19T02:31:05.453Z,17.90
2018-06-19T02:33:33.916Z,17.90
2018-06-19T02:36:02.405Z,17.80
2018-06-19T02:38:30.873Z,17.80
2018-06-19T02:40:59.365Z,17.80
2018-06-19T02:43:27.841Z,17.80
2018-06-19T02:45:56.318Z,17.70
2018-06-19T02:48:24.821Z,17.60
2018-06-19T02:50:53.376Z,17.70
2018-06-19T02:53:21.879Z,17.60
2018-06-19T02:55:50.356Z,17.50
2018-06-19T02:58:18.942Z,17.50
2018-06-19T03:00:47.430Z,17.40
2018-06-19T03:03:15.928Z,17.50
2018-06-19T03:05:44.409Z,17.50
2018-06-19T03:08:12.877Z,17.40
2018-06-19T03:10:41.372Z,17.40
2018-06-19T03:13:09.837Z,17.40
2018-06-19T03:15:38.340Z,17.40
2018-06-19T03:23:03.150Z,17.30
2018-06-19T03:25:31.648Z,17.40
2018-06-19T03:28:00.137Z,17.30
2018-06-19T03:30:28.874Z,17.20
2018-06-19T03:32:57.269Z,17.30
2018-06-19T03:35:25.740Z,17.20
2018-06-19T03:37:54.239Z,17.20
2018-06-19T03:40:22.708Z,17.20
2018-06-19T03:42:51.220Z,17.20
2018-06-19T03:45:19.732Z,17.20
2018-06-19T03:47:48.204Z,17.20
2018-06-19T03:55:12.989Z,17.20
2018-06-19T03:57:41.480Z,17.10
2018-06-19T04:00:09.960Z,17.20
2018-06-19T04:02:38.481Z,17.20
2018-06-19T04:05:06.977Z,17.10
2018-06-19T04:07:35.493Z,17.20
2018-06-19T04:10:04.168Z,17.20
2018-06-19T04:12:32.632Z,17.20
2018-06-19T04:15:01.129Z,17.20
2018-06-19T04:17:29.620Z,17.20
2018-06-19T04:19:58.968Z,17.20
2018-06-19T04:24:57.868Z,17.20
2018-06-19T04:27:26.788Z,17.30
2018-06-19T04:29:55.316Z,17.30
2018-06-19T04:32:23.824Z,17.40
2018-06-19T04:34:52.308Z,17.30
2018-06-19T04:37:20.851Z,17.40
2018-06-19T04:39:49.373Z,17.40
2018-06-19T04:44:46.872Z,17.40
2018-06-19T04:47:15.372Z,17.40
2018-06-19T04:49:43.869Z,17.40
2018-06-19T04:52:12.368Z,17.40
2018-06-19T04:54:40.852Z,17.40
2018-06-19T04:57:09.371Z,17.50
2018-06-19T04:59:37.896Z,17.50
2018-06-19T05:02:06.416Z,17.60
2018-06-19T05:04:34.917Z,17.60
2018-06-19T05:07:03.409Z,17.70
2018-06-19T05:09:31.924Z,17.80
2018-06-19T05:12:00.401Z,17.80
2018-06-19T05:16:57.051Z,17.90
2018-06-19T05:19:25.524Z,18.00
2018-06-19T05:21:54.037Z,18.10
2018-06-19T05:24:22.807Z,18.10
2018-06-19T05:26:51.315Z,18.10
2018-06-19T05:29:19.800Z,18.20
2018-06-19T05:31:48.301Z,18.20
2018-06-19T05:36:44.953Z,18.30
2018-06-19T05:41:41.597Z,18.40
2018-06-19T05:44:10.097Z,18.50
2018-06-19T05:49:07.046Z,18.60
2018-06-19T05:51:35.532Z,18.70
2018-06-19T05:54:04.076Z,18.80
2018-06-19T05:56:32.844Z,18.80
2018-06-19T05:59:01.325Z,18.90
2018-06-19T06:01:29.856Z,19.00
2018-06-19T06:03:58.327Z,19.00
2018-06-19T06:06:26.819Z,19.00
2018-06-19T06:08:55.307Z,19.10
2018-06-19T06:11:23.788Z,19.10
2018-06-19T06:13:52.968Z,19.20
2018-06-19T06:16:21.571Z,19.20
2018-06-19T06:18:50.041Z,19.30
2018-06-19T06:21:18.520Z,19.30
2018-06-19T06:23:47.023Z,19.30
2018-06-19T06:28:43.665Z,19.40
2018-06-19T06:31:12.176Z,19.50
2018-06-19T06:33:40.824Z,19.60
2018-06-19T06:36:09.311Z,19.60
2018-06-19T06:38:37.789Z,19.70
2018-06-19T06:41:06.283Z,19.90
2018-06-19T06:43:34.756Z,20.00
2018-06-19T06:46:03.280Z,20.10
2018-06-19T06:48:31.753Z,20.20
2018-06-19T06:51:00.257Z,20.20
2018-06-19T06:53:28.733Z,20.20
2018-06-19T06:55:57.237Z,20.20
2018-06-19T06:58:25.728Z,20.40
2018-06-19T07:00:54.200Z,20.50
2018-06-19T07:03:23.171Z,20.60
2018-06-19T07:05:52.320Z,20.60
2018-06-19T07:08:20.825Z,20.60
2018-06-19T07:10:49.350Z,20.70
2018-06-19T07:13:17.887Z,20.60
2018-06-19T07:18:14.604Z,20.60
2018-06-19T07:20:43.100Z,20.60
2018-06-19T07:23:11.656Z,20.80
2018-06-19T07:25:40.160Z,20.80
2018-06-19T07:28:08.708Z,20.80
2018-06-19T07:30:37.256Z,20.90
2018-06-19T07:35:33.929Z,20.70
2018-06-19T07:38:02.446Z,20.80
2018-06-19T07:40:30.924Z,20.90
2018-06-19T07:43:01.877Z,21.00
2018-06-19T07:45:30.348Z,21.10
2018-06-19T07:47:58.969Z,21.20
2018-06-19T07:50:27.593Z,21.30
2018-06-19T07:52:56.096Z,21.50
2018-06-19T07:55:24.585Z,21.50
2018-06-19T07:57:53.419Z,21.50
2018-06-19T08:02:50.552Z,21.50
2018-06-19T08:05:19.064Z,21.50
2018-06-19T08:07:47.557Z,21.60
2018-06-19T08:10:16.080Z,21.70
2018-06-19T08:12:44.815Z,21.70
2018-06-19T08:17:41.505Z,21.70
2018-06-19T08:20:10.363Z,21.70
2018-06-19T08:25:07.392Z,22.00
2018-06-19T08:27:35.918Z,22.10
2018-06-19T08:30:04.685Z,22.20
2018-06-19T08:32:33.224Z,22.30
2018-06-19T08:35:01.783Z,22.20
2018-06-19T08:37:30.351Z,22.30
2018-06-19T08:42:27.916Z,22.50
2018-06-19T08:44:56.399Z,22.60
2018-06-19T08:49:53.096Z,22.70
2018-06-19T08:52:21.599Z,22.60
2018-06-19T08:57:18.315Z,22.80
2018-06-19T08:59:46.836Z,22.90
2018-06-19T09:02:15.360Z,23.10
2018-06-19T09:04:43.932Z,23.20
2018-06-19T09:07:12.450Z,23.40
2018-06-19T09:09:40.948Z,23.40
2018-06-19T09:12:09.474Z,23.30
2018-06-19T09:14:37.964Z,23.20
2018-06-19T09:17:06.483Z,23.00
2018-06-19T09:19:34.959Z,23.00
2018-06-19T09:22:03.464Z,23.10
2018-06-19T09:24:32.041Z,23.20
2018-06-19T09:27:00.520Z,23.40
2018-06-19T09:29:29.035Z,23.70
2018-06-19T09:31:57.524Z,23.90
2018-06-19T09:34:26.275Z,24.10
2018-06-19T09:36:54.796Z,24.20
2018-06-19T09:39:23.297Z,24.20
2018-06-19T09:41:51.837Z,24.10
2018-06-19T09:46:48.497Z,23.90
2018-06-19T09:49:16.979Z,23.70
2018-06-19T09:51:45.581Z,23.70
2018-06-19T09:54:14.061Z,23.70
2018-06-19T09:56:42.661Z,23.90
2018-06-19T09:59:11.244Z,24.10
2018-06-19T10:04:07.880Z,24.40
2018-06-19T10:06:36.410Z,24.50
2018-06-19T10:09:07.232Z,24.70
2018-06-19T10:14:04.041Z,25.10
2018-06-19T10:16:32.620Z,25.00
2018-06-19T10:19:01.125Z,25.00
2018-06-19T10:21:29.605Z,25.10
2018-06-19T10:23:58.144Z,25.40
2018-06-19T10:26:26.688Z,25.70
2018-06-19T10:28:55.161Z,25.80
2018-06-19T10:31:23.689Z,25.80
2018-06-19T10:33:52.188Z,26.10
2018-06-19T10:36:20.688Z,26.30
2018-06-19T10:38:49.160Z,26.70
2018-06-19T10:41:17.681Z,26.80
2018-06-19T10:43:46.152Z,26.90
2018-06-19T10:46:14.692Z,26.80
2018-06-19T10:48:43.180Z,26.80
2018-06-19T10:51:11.657Z,26.80
2018-06-19T10:53:40.165Z,26.40
2018-06-19T10:56:08.632Z,26.50
2018-06-19T10:58:37.140Z,26.80
2018-06-19T11:01:05.637Z,26.80
2018-06-19T11:06:02.327Z,26.30
2018-06-19T11:08:30.852Z,25.90
2018-06-19T11:10:59.340Z,25.90
2018-06-19T11:13:27.844Z,26.00
2018-06-19T11:15:56.336Z,26.00
2018-06-19T11:20:52.984Z,26.30
2018-06-19T11:23:21.522Z,26.60
2018-06-19T11:25:50.046Z,26.90
2018-06-19T11:30:46.769Z,27.10
2018-06-19T11:33:15.257Z,27.10
2018-06-19T11:35:43.768Z,27.00
2018-06-19T11:40:40.524Z,27.00
2018-06-19T11:45:37.162Z,27.00
2018-06-19T11:48:05.785Z,27.10
2018-06-19T11:50:34.321Z,27.20
2018-06-19T11:53:02.832Z,27.20
2018-06-19T11:57:59.529Z,27.00
2018-06-19T12:00:28.052Z,26.70
2018-06-19T12:02:56.574Z,26.70
2018-06-19T12:05:25.072Z,26.80
2018-06-19T12:07:53.632Z,26.80
2018-06-19T12:10:22.112Z,26.70
2018-06-19T12:12:50.604Z,26.70
2018-06-19T12:15:19.084Z,26.80
2018-06-19T12:17:47.565Z,27.00
2018-06-19T12:20:16.069Z,27.20
2018-06-19T12:22:44.532Z,27.30
2018-06-19T12:25:13.088Z,27.40
2018-06-19T12:32:37.912Z,27.70
2018-06-19T12:35:06.425Z,27.90
2018-06-19T12:37:34.900Z,27.70
2018-06-19T12:40:03.428Z,27.60
2018-06-19T12:42:31.946Z,27.70
2018-06-19T12:45:00.429Z,27.70
2018-06-19T12:47:28.928Z,27.90
2018-06-19T12:50:40.141Z,28.40
2018-06-19T12:53:20.491Z,29.20
2018-06-19T12:56:01.132Z,29.80
2018-06-19T13:00:57.800Z,29.40
2018-06-19T13:03:37.464Z,29.20
2018-06-19T13:06:17.094Z,28.90
2018-06-19T13:08:45.601Z,28.80
2018-06-19T13:11:14.149Z,28.40
2018-06-19T13:16:27.785Z,28.20
2018-06-19T13:19:07.397Z,28.80
2018-06-19T13:21:35.929Z,28.80
2018-06-19T13:24:04.464Z,29.60
2018-06-19T13:26:32.993Z,29.90
2018-06-19T13:29:39.279Z,30.00
2018-06-19T13:32:07.804Z,29.90
2018-06-19T13:34:36.780Z,31.30
2018-06-19T13:37:05.745Z,31.90
2018-06-19T13:39:34.825Z,32.30
2018-06-19T13:42:15.200Z,32.60
2018-06-19T13:44:55.064Z,33.60
2018-06-19T13:47:23.556Z,32.80
2018-06-19T13:49:52.052Z,32.50
2018-06-19T13:52:20.545Z,32.70
2018-06-19T13:54:49.081Z,33.10
2018-06-19T13:57:35.102Z,33.30
2018-06-19T14:00:05.072Z,33.50
2018-06-19T14:02:33.587Z,33.20
2018-06-19T14:05:02.649Z,33.00
2018-06-19T14:07:33.425Z,32.80
2018-06-19T14:10:21.512Z,32.40
2018-06-19T14:15:38.248Z,31.80
2018-06-19T14:18:07.132Z,31.60
2018-06-19T14:23:04.117Z,31.50
2018-06-19T14:25:32.612Z,31.50
2018-06-19T14:28:01.086Z,31.00
2018-06-19T14:30:29.621Z,30.90
2018-06-19T14:32:58.188Z,30.90
2018-06-19T14:35:26.700Z,31.00
2018-06-19T14:40:23.396Z,31.20
2018-06-19T14:42:51.876Z,31.20
2018-06-19T14:45:20.396Z,31.30
2018-06-19T14:47:48.919Z,31.30
2018-06-19T14:52:45.569Z,31.50
2018-06-19T14:57:42.228Z,31.20
2018-06-19T15:00:11.472Z,31.20
2018-06-19T15:02:40.100Z,30.90
2018-06-19T15:10:22.451Z,30.70
2018-06-19T15:12:51.073Z,30.60
2018-06-19T15:15:19.553Z,30.50
2018-06-19T15:17:48.053Z,30.50
2018-06-19T15:20:16.541Z,30.70
2018-06-19T15:22:45.089Z,30.50
2018-06-19T15:25:13.556Z,30.20
2018-06-19T15:27:42.032Z,30.10
2018-06-19T15:30:10.569Z,30.10
2018-06-19T15:32:39.051Z,30.00
2018-06-19T15:35:07.604Z,30.00
2018-06-19T15:37:36.103Z,29.90
2018-06-19T15:40:04.757Z,29.80
2018-06-19T15:42:33.258Z,29.60
2018-06-19T15:45:01.787Z,29.60
2018-06-19T15:49:58.465Z,29.10
2018-06-19T15:52:26.956Z,29.00
2018-06-19T15:54:55.448Z,28.80
2018-06-19T15:57:24.014Z,28.70
2018-06-19T15:59:52.449Z,28.90
2018-06-19T16:02:20.977Z,29.00
2018-06-19T16:04:49.450Z,29.10
2018-06-19T16:07:17.949Z,29.00
2018-06-19T16:09:46.437Z,29.00
2018-06-19T16:12:14.895Z,29.10
2018-06-19T16:19:39.689Z,29.10
2018-06-19T16:22:08.172Z,29.20
2018-06-19T16:24:36.673Z,29.20
2018-06-19T16:29:33.332Z,28.80
2018-06-19T16:34:29.976Z,28.50
2018-06-19T16:36:58.460Z,28.20
2018-06-19T16:39:26.932Z,28.10
2018-06-19T16:41:55.433Z,28.00
2018-06-19T16:46:52.064Z,27.90
2018-06-19T16:49:20.523Z,27.70
2018-06-19T16:51:49.024Z,27.60
2018-06-19T16:54:17.505Z,27.30
2018-06-19T16:56:46.005Z,27.20
2018-06-19T16:59:14.484Z,27.20
2018-06-19T17:01:43.000Z,27.20
2018-06-19T17:04:11.464Z,27.20
2018-06-19T17:14:04.528Z,27.10
2018-06-19T17:16:33.073Z,27.10
2018-06-19T17:19:01.545Z,27.00
2018-06-19T17:21:30.071Z,27.00
2018-06-19T17:23:58.920Z,27.00
2018-06-19T17:26:27.412Z,26.90
2018-06-19T17:28:55.960Z,26.90
2018-06-19T17:31:24.433Z,26.80
2018-06-19T17:33:52.933Z,26.80
2018-06-19T17:38:49.579Z,26.70
2018-06-19T17:41:18.049Z,26.70
2018-06-19T17:43:46.540Z,26.70
2018-06-19T17:46:15.013Z,26.70
2018-06-19T17:48:43.485Z,26.70
2018-06-19T17:51:11.987Z,26.70
2018-06-19T17:53:40.452Z,26.60
2018-06-19T17:56:09.181Z,26.60
2018-06-19T17:58:37.688Z,26.50
2018-06-19T18:01:06.308Z,26.40
2018-06-19T18:03:34.791Z,26.50
2018-06-19T18:06:03.292Z,26.40
2018-06-19T18:10:59.920Z,26.10
2018-06-19T18:13:28.424Z,26.00
2018-06-19T18:15:56.896Z,26.00
2018-06-19T18:18:25.408Z,26.00
2018-06-19T18:20:53.885Z,26.00
2018-06-19T18:28:18.952Z,25.90
2018-06-19T18:30:47.412Z,25.80
2018-06-19T18:33:15.947Z,25.80
2018-06-19T18:35:44.401Z,25.70
2018-06-19T18:38:12.934Z,25.60
2018-06-19T18:40:41.481Z,25.50
2018-06-19T18:43:09.940Z,25.40
2018-06-19T18:45:38.517Z,25.40
2018-06-19T18:48:07.032Z,25.40
2018-06-19T18:50:35.528Z,25.30
2018-06-19T18:53:04.971Z,25.20
2018-06-19T18:55:33.456Z,25.20
2018-06-19T18:58:01.952Z,25.10
2018-06-19T19:00:30.457Z,25.00
2018-06-19T19:02:58.934Z,25.00
2018-06-19T19:05:27.437Z,25.00
2018-06-19T19:07:55.912Z,25.00
2018-06-19T19:10:29.690Z,24.90
2018-06-19T19:12:58.175Z,24.90
2018-06-19T19:15:32.200Z,24.80
2018-06-19T19:18:06.160Z,24.80
2018-06-19T19:23:02.832Z,24.80
2018-06-19T19:25:31.344Z,24.80
2018-06-19T19:28:05.143Z,24.70
2018-06-19T19:30:33.645Z,24.60
2018-06-19T19:33:02.136Z,24.60
2018-06-19T19:35:30.653Z,24.50
2018-06-19T19:38:04.497Z,24.40
2018-06-19T19:40:32.976Z,24.40
2018-06-19T19:43:01.479Z,24.30
2018-06-19T19:45:29.946Z,24.30
2018-06-19T19:48:03.756Z,24.20
2018-06-19T19:50:32.225Z,24.20
2018-06-19T19:53:00.740Z,24.10
2018-06-19T19:55:29.216Z,24.10
2018-06-19T19:58:03.173Z,24.10
2018-06-19T20:00:31.651Z,24.00
2018-06-19T20:03:00.145Z,24.00
2018-06-19T20:05:28.796Z,24.00
2018-06-19T20:07:57.321Z,24.00
2018-06-19T20:10:25.797Z,23.90
2018-06-19T20:12:54.296Z,23.90
2018-06-19T20:15:22.768Z,23.80
2018-06-19T20:17:51.273Z,23.80
2018-06-19T20:20:19.763Z,23.80
2018-06-19T20:22:48.249Z,23.70
2018-06-19T20:25:16.748Z,23.70
2018-06-19T20:27:45.208Z,23.70
2018-06-19T20:30:13.708Z,23.70
2018-06-19T20:32:42.184Z,23.60
2018-06-19T20:35:10.702Z,23.60
2018-06-19T20:37:39.184Z,23.60
2018-06-19T20:40:07.679Z,23.60
2018-06-19T20:42:36.461Z,23.50
2018-06-19T20:45:05.072Z,23.50
2018-06-19T20:47:33.593Z,23.50
2018-06-19T20:52:30.252Z,23.30
2018-06-19T20:54:58.719Z,23.30
2018-06-19T20:57:27.194Z,23.30
2018-06-19T20:59:55.684Z,23.20
2018-06-19T21:02:24.152Z,23.20
2018-06-19T21:04:52.634Z,23.20
2018-06-19T21:07:21.120Z,23.20
2018-06-19T21:09:49.616Z,23.10
2018-06-19T21:12:18.115Z,23.10
2018-06-19T21:17:14.748Z,23.10
2018-06-19T21:19:43.212Z,23.00
2018-06-19T21:22:11.712Z,23.00
2018-06-19T21:24:40.200Z,23.00
2018-06-19T21:32:05.041Z,22.80
2018-06-19T21:34:33.557Z,22.80
2018-06-19T21:37:02.073Z,22.80
2018-06-19T21:39:30.617Z,22.70
2018-06-19T21:41:59.205Z,22.70
2018-06-19T21:44:27.734Z,22.70
2018-06-19T21:46:56.457Z,22.60
2018-06-19T21:49:24.990Z,22.60
2018-06-19T21:51:53.558Z,22.60
2018-06-19T21:54:22.028Z,22.60
2018-06-19T21:56:50.524Z,22.60
2018-06-19T21:59:18.993Z,22.50
2018-06-19T22:01:47.521Z,22.50
2018-06-19T22:04:16.016Z,22.50
2018-06-19T22:09:12.740Z,22.50
2018-06-19T22:11:41.217Z,22.50
2018-06-19T22:14:09.715Z,22.50
2018-06-19T22:16:38.188Z,22.40
2018-06-19T22:19:06.685Z,22.40
2018-06-19T22:21:35.148Z,22.40
2018-06-19T22:24:03.629Z,22.40
2018-06-19T22:26:32.168Z,22.30
2018-06-19T22:29:00.608Z,22.30
2018-06-19T22:31:29.085Z,22.30
2018-06-19T22:33:57.645Z,22.20
2018-06-19T22:36:26.159Z,22.20
2018-06-19T22:38:54.624Z,22.20
2018-06-19T22:41:23.096Z,22.10
2018-06-19T22:43:51.585Z,22.00
2018-06-19T22:46:20.061Z,22.00
2018-06-19T22:48:48.607Z,21.90
2018-06-19T22:51:17.108Z,21.90
2018-06-19T22:53:45.664Z,21.80
2018-06-19T22:56:14.144Z,21.80
2018-06-19T22:58:42.629Z,21.70
2018-06-19T23:01:11.090Z,21.70
2018-06-19T23:08:35.980Z,21.60
2018-06-19T23:11:04.923Z,21.60
2018-06-19T23:13:33.408Z,21.50
2018-06-19T23:16:01.888Z,21.50
2018-06-19T23:18:30.363Z,21.50
2018-06-19T23:23:26.984Z,21.40
2018-06-19T23:25:55.489Z,21.40
2018-06-19T23:30:52.100Z,21.30
2018-06-19T23:33:20.585Z,21.30
2018-06-19T23:35:49.053Z,21.30
2018-06-19T23:38:17.552Z,21.40
2018-06-19T23:40:46.092Z,21.40
2018-06-19T23:43:14.580Z,21.30
2018-06-19T23:45:43.065Z,21.30
2018-06-19T23:48:11.573Z,21.30
2018-06-19T23:50:40.053Z,21.30
2018-06-19T23:55:36.672Z,21.30
2018-06-19T23:58:05.200Z,21.30
